sensor_id;sensor_type;location;lat;lon;timestamp;pressure;altitude;pressure_sealevel;temperature;humidity
30636;BME280;17400;52.392;9.750;2023-03-04T00:00:31;101622.03;;;4.87;100.00
30636;BME280;17400;52.392;9.750;2023-03-04T00:02:59;101616.81;;;4.86;100.00
30636;BME280;17400;52.392;9.750;2023-03-04T00:05:27;101613.84;;;4.89;100.00
30636;BME280;17400;52.392;9.750;2023-03-04T00:07:59;101617.50;;;4.88;100.00
30636;BME280;17400;52.392;9.750;2023-03-04T00:10:27;101607.06;;;4.84;100.00
30636;BME280;17400;52.392;9.750;2023-03-04T00:12:54;101613.84;;;4.89;100.00
30636;BME280;17400;52.392;9.750;2023-03-04T00:15:22;101608.91;;;4.94;100.00
30636;BME280;17400;52.392;9.750;2023-03-04T00:17:49;101616.00;;;4.95;100.00
30636;BME280;17400;52.392;9.750;2023-03-04T00:20:17;101616.25;;;4.92;100.00
30636;BME280;17400;52.392;9.750;2023-03-04T00:22:45;101608.19;;;4.92;100.00
30636;BME280;17400;52.392;9.750;2023-03-04T00:25:15;101606.78;;;4.88;100.00
30636;BME280;17400;52.392;9.750;2023-03-04T00:27:42;101610.72;;;4.83;100.00
30636;BME280;17400;52.392;9.750;2023-03-04T00:30:11;101611.16;;;4.89;100.00
30636;BME280;17400;52.392;9.750;2023-03-04T00:32:38;101612.44;;;4.94;100.00
30636;BME280;17400;52.392;9.750;2023-03-04T00:35:07;101601.56;;;4.96;100.00
30636;BME280;17400;52.392;9.750;2023-03-04T00:37:34;101601.72;;;4.94;100.00
30636;BME280;17400;52.392;9.750;2023-03-04T00:40:03;101596.19;;;4.96;100.00
30636;BME280;17400;52.392;9.750;2023-03-04T00:42:34;101603.28;;;4.97;100.00
30636;BME280;17400;52.392;9.750;2023-03-04T00:45:03;101602.56;;;4.95;100.00
30636;BME280;17400;52.392;9.750;2023-03-04T00:47:33;101599.47;;;4.99;100.00
30636;BME280;17400;52.392;9.750;2023-03-04T00:50:01;101606.09;;;5.05;100.00
30636;BME280;17400;52.392;9.750;2023-03-04T00:52:28;101589.16;;;5.05;100.00
30636;BME280;17400;52.392;9.750;2023-03-04T00:54:56;101594.94;;;5.00;100.00
30636;BME280;17400;52.392;9.750;2023-03-04T00:57:24;101595.06;;;4.98;100.00
30636;BME280;17400;52.392;9.750;2023-03-04T00:59:53;101592.81;;;4.94;100.00
30636;BME280;17400;52.392;9.750;2023-03-04T01:02:22;101593.81;;;4.93;100.00
30636;BME280;17400;52.392;9.750;2023-03-04T01:04:49;101588.16;;;4.96;100.00
30636;BME280;17400;52.392;9.750;2023-03-04T01:07:17;101588.03;;;4.97;100.00
30636;BME280;17400;52.392;9.750;2023-03-04T01:09:45;101585.66;;;5.04;100.00
30636;BME280;17400;52.392;9.750;2023-03-04T01:12:13;101583.38;;;4.99;100.00
30636;BME280;17400;52.392;9.750;2023-03-04T01:14:40;101581.38;;;4.92;100.00
30636;BME280;17400;52.392;9.750;2023-03-04T01:17:09;101583.78;;;4.95;100.00
30636;BME280;17400;52.392;9.750;2023-03-04T01:19:38;101583.78;;;4.95;100.00
30636;BME280;17400;52.392;9.750;2023-03-04T01:22:05;101583.06;;;4.93;100.00
30636;BME280;17400;52.392;9.750;2023-03-04T01:24:33;101580.97;;;4.96;100.00
30636;BME280;17400;52.392;9.750;2023-03-04T01:27:02;101568.38;;;4.97;100.00
30636;BME280;17400;52.392;9.750;2023-03-04T01:29:30;101555.84;;;4.97;100.00
30636;BME280;17400;52.392;9.750;2023-03-04T01:31:57;101557.34;;;5.00;100.00
30636;BME280;17400;52.392;9.750;2023-03-04T01:34:27;101558.91;;;5.03;100.00
30636;BME280;17400;52.392;9.750;2023-03-04T01:36:55;101553.69;;;5.01;100.00
30636;BME280;17400;52.392;9.750;2023-03-04T01:39:22;101547.06;;;4.95;100.00
30636;BME280;17400;52.392;9.750;2023-03-04T01:41:50;101546.22;;;4.95;100.00
30636;BME280;17400;52.392;9.750;2023-03-04T01:44:18;101541.69;;;4.86;100.00
30636;BME280;17400;52.392;9.750;2023-03-04T01:46:47;101549.44;;;4.79;100.00
30636;BME280;17400;52.392;9.750;2023-03-04T01:49:17;101535.03;;;4.80;100.00
30636;BME280;17400;52.392;9.750;2023-03-04T01:51:49;101528.09;;;4.77;100.00
30636;BME280;17400;52.392;9.750;2023-03-04T01:54:19;101525.59;;;4.86;100.00
30636;BME280;17400;52.392;9.750;2023-03-04T01:56:49;101518.97;;;4.90;100.00
30636;BME280;17400;52.392;9.750;2023-03-04T01:59:19;101518.13;;;4.99;100.00
30636;BME280;17400;52.392;9.750;2023-03-04T02:01:48;101507.38;;;4.99;100.00
30636;BME280;17400;52.392;9.750;2023-03-04T02:04:19;101510.91;;;4.90;100.00
30636;BME280;17400;52.392;9.750;2023-03-04T02:06:49;101514.03;;;4.95;100.00
30636;BME280;17400;52.392;9.750;2023-03-04T02:09:18;101498.31;;;5.00;100.00
30636;BME280;17400;52.392;9.750;2023-03-04T02:11:46;101498.22;;;5.02;100.00
30636;BME280;17400;52.392;9.750;2023-03-04T02:14:15;101496.22;;;5.04;100.00
30636;BME280;17400;52.392;9.750;2023-03-04T02:16:43;101494.94;;;5.08;100.00
30636;BME280;17400;52.392;9.750;2023-03-04T02:19:15;101491.28;;;5.09;100.00
30636;BME280;17400;52.392;9.750;2023-03-04T02:21:45;101494.09;;;5.07;100.00
30636;BME280;17400;52.392;9.750;2023-03-04T02:24:22;101485.22;;;5.07;100.00
30636;BME280;17400;52.392;9.750;2023-03-04T02:26:54;101491.97;;;5.01;100.00
30636;BME280;17400;52.392;9.750;2023-03-04T02:29:22;101497.63;;;5.08;100.00
30636;BME280;17400;52.392;9.750;2023-03-04T02:31:51;101486.47;;;5.03;100.00
30636;BME280;17400;52.392;9.750;2023-03-04T02:34:23;101483.09;;;5.00;100.00
30636;BME280;17400;52.392;9.750;2023-03-04T02:36:52;101478.84;;;5.08;100.00
30636;BME280;17400;52.392;9.750;2023-03-04T02:39:28;101476.44;;;5.14;100.00
30636;BME280;17400;52.392;9.750;2023-03-04T02:41:59;101469.38;;;5.13;100.00
30636;BME280;17400;52.392;9.750;2023-03-04T02:44:29;101472.63;;;5.17;100.00
30636;BME280;17400;52.392;9.750;2023-03-04T02:46:57;101475.03;;;5.20;100.00
30636;BME280;17400;52.392;9.750;2023-03-04T02:49:27;101467.09;;;5.18;100.00
30636;BME280;17400;52.392;9.750;2023-03-04T02:51:59;101475.03;;;5.20;100.00
30636;BME280;17400;52.392;9.750;2023-03-04T02:54:28;101473.59;;;5.26;100.00
30636;BME280;17400;52.392;9.750;2023-03-04T02:57:03;101465.09;;;5.30;100.00
30636;BME280;17400;52.392;9.750;2023-03-04T02:59:31;101473.31;;;5.29;100.00
30636;BME280;17400;52.392;9.750;2023-03-04T03:01:59;101465.69;;;5.24;100.00
30636;BME280;17400;52.392;9.750;2023-03-04T03:04:27;101470.50;;;5.21;100.00
30636;BME280;17400;52.392;9.750;2023-03-04T03:06:55;101474.59;;;5.15;100.00
30636;BME280;17400;52.392;9.750;2023-03-04T03:09:22;101480.50;;;5.18;100.00
30636;BME280;17400;52.392;9.750;2023-03-04T03:11:50;101476.16;;;5.17;100.00
30636;BME280;17400;52.392;9.750;2023-03-04T03:14:19;101470.50;;;5.21;100.00
30636;BME280;17400;52.392;9.750;2023-03-04T03:16:47;101466.41;;;5.16;100.00
30636;BME280;17400;52.392;9.750;2023-03-04T03:19:14;101466.41;;;5.16;100.00
30636;BME280;17400;52.392;9.750;2023-03-04T03:21:42;101468.09;;;5.17;100.00
30636;BME280;17400;52.392;9.750;2023-03-04T03:24:10;101468.94;;;5.18;100.00
30636;BME280;17400;52.392;9.750;2023-03-04T03:26:38;101466.09;;;5.20;100.00
30636;BME280;17400;52.392;9.750;2023-03-04T03:29:06;101466.97;;;5.20;100.00
30636;BME280;17400;52.392;9.750;2023-03-04T03:31:35;101464.41;;;5.18;100.00
30636;BME280;17400;52.392;9.750;2023-03-04T03:34:03;101459.75;;;5.21;100.00
30636;BME280;17400;52.392;9.750;2023-03-04T03:36:31;101462.16;;;5.24;100.00
30636;BME280;17400;52.392;9.750;2023-03-04T03:38:58;101457.50;;;5.26;100.00
30636;BME280;17400;52.392;9.750;2023-03-04T03:41:26;101457.19;;;5.29;100.00
30636;BME280;17400;52.392;9.750;2023-03-04T03:43:54;101454.97;;;5.24;100.00
30636;BME280;17400;52.392;9.750;2023-03-04T03:46:22;101449.28;;;5.27;100.00
30636;BME280;17400;52.392;9.750;2023-03-04T03:48:51;101451.56;;;5.32;100.00
30636;BME280;17400;52.392;9.750;2023-03-04T03:51:19;101452.53;;;5.31;100.00
30636;BME280;17400;52.392;9.750;2023-03-04T03:53:47;101448.88;;;5.32;100.00
30636;BME280;17400;52.392;9.750;2023-03-04T03:56:15;101442.22;;;5.36;100.00
30636;BME280;17400;52.392;9.750;2023-03-04T03:58:43;101437.84;;;5.35;100.00
30636;BME280;17400;52.392;9.750;2023-03-04T04:01:10;101450.28;;;5.36;100.00
30636;BME280;17400;52.392;9.750;2023-03-04T04:03:38;101444.91;;;5.36;100.00
30636;BME280;17400;52.392;9.750;2023-03-04T04:06:08;101443.63;;;5.40;100.00
30636;BME280;17400;52.392;9.750;2023-03-04T04:08:35;101445.31;;;5.41;100.00
30636;BME280;17400;52.392;9.750;2023-03-04T04:11:03;101438.25;;;5.40;100.00
30636;BME280;17400;52.392;9.750;2023-03-04T04:13:31;101450.53;;;5.43;100.00
30636;BME280;17400;52.392;9.750;2023-03-04T04:15:59;101446.00;;;5.43;100.00
30636;BME280;17400;52.392;9.750;2023-03-04T04:18:27;101441.63;;;5.42;100.00
30636;BME280;17400;52.392;9.750;2023-03-04T04:20:54;101440.47;;;5.45;100.00
30636;BME280;17400;52.392;9.750;2023-03-04T04:23:24;101435.16;;;5.35;100.00
30636;BME280;17400;52.392;9.750;2023-03-04T04:25:53;101435.88;;;5.37;100.00
30636;BME280;17400;52.392;9.750;2023-03-04T04:28:21;101439.53;;;5.36;100.00
30636;BME280;17400;52.392;9.750;2023-03-04T04:30:49;101437.00;;;5.25;100.00
30636;BME280;17400;52.392;9.750;2023-03-04T04:33:16;101430.66;;;5.26;100.00
30636;BME280;17400;52.392;9.750;2023-03-04T04:35:44;101440.97;;;5.21;100.00
30636;BME280;17400;52.392;9.750;2023-03-04T04:38:12;101442.56;;;5.13;100.00
30636;BME280;17400;52.392;9.750;2023-03-04T04:40:41;101438.16;;;5.12;100.00
30636;BME280;17400;52.392;9.750;2023-03-04T04:43:09;101441.00;;;5.11;100.00
30636;BME280;17400;52.392;9.750;2023-03-04T04:45:36;101427.41;;;5.03;100.00
30636;BME280;17400;52.392;9.750;2023-03-04T04:48:05;101428.84;;;4.97;100.00
30636;BME280;17400;52.392;9.750;2023-03-04T04:50:32;101424.91;;;4.91;100.00
30636;BME280;17400;52.392;9.750;2023-03-04T04:53:00;101415.44;;;4.87;100.00
30636;BME280;17400;52.392;9.750;2023-03-04T04:55:28;101421.78;;;4.96;100.00
30636;BME280;17400;52.392;9.750;2023-03-04T04:57:57;101415.00;;;4.92;100.00
30636;BME280;17400;52.392;9.750;2023-03-04T05:00:25;101412.34;;;4.82;100.00
30636;BME280;17400;52.392;9.750;2023-03-04T05:02:52;101413.03;;;4.84;100.00
30636;BME280;17400;52.392;9.750;2023-03-04T05:05:20;101415.31;;;4.89;100.00
30636;BME280;17400;52.392;9.750;2023-03-04T05:07:48;101409.78;;;4.90;100.00
30636;BME280;17400;52.392;9.750;2023-03-04T05:10:16;101402.72;;;4.89;100.00
30636;BME280;17400;52.392;9.750;2023-03-04T05:12:43;101402.88;;;4.88;100.00
30636;BME280;17400;52.392;9.750;2023-03-04T05:15:13;101403.44;;;4.91;100.00
30636;BME280;17400;52.392;9.750;2023-03-04T05:17:40;101392.97;;;4.88;100.00
30636;BME280;17400;52.392;9.750;2023-03-04T05:20:09;101400.03;;;4.89;100.00
30636;BME280;17400;52.392;9.750;2023-03-04T05:22:37;101389.03;;;4.82;100.00
30636;BME280;17400;52.392;9.750;2023-03-04T05:25:05;101399.50;;;4.86;100.00
30636;BME280;17400;52.392;9.750;2023-03-04T05:27:33;101393.16;;;4.77;100.00
30636;BME280;17400;52.392;9.750;2023-03-04T05:30:01;101393.28;;;4.75;100.00
30636;BME280;17400;52.392;9.750;2023-03-04T05:32:30;101404.16;;;4.74;100.00
30636;BME280;17400;52.392;9.750;2023-03-04T05:34:58;101397.81;;;4.84;100.00
30636;BME280;17400;52.392;9.750;2023-03-04T05:37:25;101401.34;;;4.75;100.00
30636;BME280;17400;52.392;9.750;2023-03-04T05:39:53;101414.47;;;4.78;100.00
30636;BME280;17400;52.392;9.750;2023-03-04T05:42:21;101401.19;;;4.77;100.00
30636;BME280;17400;52.392;9.750;2023-03-04T05:44:49;101397.53;;;4.78;100.00
30636;BME280;17400;52.392;9.750;2023-03-04T05:47:17;101398.06;;;4.81;100.00
30636;BME280;17400;52.392;9.750;2023-03-04T05:49:46;101399.50;;;4.86;100.00
30636;BME280;17400;52.392;9.750;2023-03-04T05:52:14;101398.34;;;4.88;100.00
30636;BME280;17400;52.392;9.750;2023-03-04T05:54:41;101398.38;;;4.78;100.00
30636;BME280;17400;52.392;9.750;2023-03-04T05:57:09;101397.53;;;4.78;100.00
30636;BME280;17400;52.392;9.750;2023-03-04T05:59:37;101410.50;;;4.82;100.00
30636;BME280;17400;52.392;9.750;2023-03-04T06:02:04;101409.06;;;4.88;100.00
30636;BME280;17400;52.392;9.750;2023-03-04T06:04:32;101405.00;;;4.94;100.00
30636;BME280;17400;52.392;9.750;2023-03-04T06:07:01;101407.13;;;4.80;100.00
30636;BME280;17400;52.392;9.750;2023-03-04T06:09:29;101392.88;;;4.70;100.00
30636;BME280;17400;52.392;9.750;2023-03-04T06:11:57;101397.81;;;4.65;100.00
30636;BME280;17400;52.392;9.750;2023-03-04T06:14:24;101405.16;;;4.73;100.00
30636;BME280;17400;52.392;9.750;2023-03-04T06:16:52;101406.41;;;4.78;100.00
30636;BME280;17400;52.392;9.750;2023-03-04T06:19:20;101405.84;;;4.84;100.00
30636;BME280;17400;52.392;9.750;2023-03-04T06:21:48;101408.13;;;4.79;100.00
30636;BME280;17400;52.392;9.750;2023-03-04T06:24:17;101401.75;;;4.80;100.00
30636;BME280;17400;52.392;9.750;2023-03-04T06:26:45;101407.41;;;4.77;100.00
30636;BME280;17400;52.392;9.750;2023-03-04T06:29:13;101404.28;;;4.72;100.00
30636;BME280;17400;52.392;9.750;2023-03-04T06:31:40;101395.56;;;4.70;100.00
30636;BME280;17400;52.392;9.750;2023-03-04T06:34:08;101395.41;;;4.72;100.00
30636;BME280;17400;52.392;9.750;2023-03-04T06:36:36;101400.91;;;4.70;100.00
30636;BME280;17400;52.392;9.750;2023-03-04T06:39:04;101404.28;;;4.72;100.00
30636;BME280;17400;52.392;9.750;2023-03-04T06:41:33;101407.97;;;4.71;100.00
30636;BME280;17400;52.392;9.750;2023-03-04T06:44:01;101396.66;;;4.77;100.00
30636;BME280;17400;52.392;9.750;2023-03-04T06:46:29;101395.38;;;4.81;100.00
30636;BME280;17400;52.392;9.750;2023-03-04T06:48:57;101396.38;;;4.90;100.00
30636;BME280;17400;52.392;9.750;2023-03-04T06:51:25;101402.31;;;4.94;100.00
30636;BME280;17400;52.392;9.750;2023-03-04T06:53:53;101401.03;;;4.98;100.00
30636;BME280;17400;52.392;9.750;2023-03-04T06:56:21;101417.56;;;4.83;100.00
30636;BME280;17400;52.392;9.750;2023-03-04T06:58:50;101395.53;;;4.80;100.00
30636;BME280;17400;52.392;9.750;2023-03-04T07:01:19;101406.84;;;4.74;100.00
30636;BME280;17400;52.392;9.750;2023-03-04T07:03:50;101401.19;;;4.77;100.00
30636;BME280;17400;52.392;9.750;2023-03-04T07:06:20;101396.41;;;4.61;100.00
30636;BME280;17400;52.392;9.750;2023-03-04T07:08:48;101401.47;;;4.83;100.00
30636;BME280;17400;52.392;9.750;2023-03-04T07:11:17;101405.28;;;5.00;100.00
30636;BME280;17400;52.392;9.750;2023-03-04T07:13:45;101402.13;;;5.05;100.00
30636;BME280;17400;52.392;9.750;2023-03-04T07:16:16;101405.25;;;5.20;100.00
30636;BME280;17400;52.392;9.750;2023-03-04T07:18:45;101395.75;;;5.26;100.00
30636;BME280;17400;52.392;9.750;2023-03-04T07:21:13;101402.22;;;5.33;100.00
30636;BME280;17400;52.392;9.750;2023-03-04T07:23:42;101407.59;;;5.33;100.00
30636;BME280;17400;52.392;9.750;2023-03-04T07:26:10;101410.56;;;5.30;100.00
30636;BME280;17400;52.392;9.750;2023-03-04T07:28:40;101405.91;;;5.22;100.00
30636;BME280;17400;52.392;9.750;2023-03-04T07:31:17;101410.19;;;5.15;100.00
30636;BME280;17400;52.392;9.750;2023-03-04T07:33:48;101407.66;;;5.04;100.00
30636;BME280;17400;52.392;9.750;2023-03-04T07:36:16;101412.47;;;5.10;100.00
30636;BME280;17400;52.392;9.750;2023-03-04T07:38:46;101420.31;;;5.21;100.00
30636;BME280;17400;52.392;9.750;2023-03-04T07:41:14;101417.97;;;5.08;100.00
30636;BME280;17400;52.392;9.750;2023-03-04T07:43:42;101415.97;;;5.10;100.00
30636;BME280;17400;52.392;9.750;2023-03-04T07:46:10;101414.28;;;5.09;100.00
30636;BME280;17400;52.392;9.750;2023-03-04T07:48:39;101410.72;;;5.18;100.00
30636;BME280;17400;52.392;9.750;2023-03-04T07:51:09;101416.53;;;5.14;100.00
30636;BME280;17400;52.392;9.750;2023-03-04T07:53:38;101416.13;;;5.09;100.00
30636;BME280;17400;52.392;9.750;2023-03-04T07:56:11;101412.31;;;5.11;100.00
30636;BME280;17400;52.392;9.750;2023-03-04T07:58:40;101416.97;;;5.09;100.00
30636;BME280;17400;52.392;9.750;2023-03-04T08:01:09;101410.78;;;4.99;100.00
30636;BME280;17400;52.392;9.750;2023-03-04T08:03:37;101415.03;;;5.02;100.00
30636;BME280;17400;52.392;9.750;2023-03-04T08:06:07;101413.44;;;5.09;100.00
30636;BME280;17400;52.392;9.750;2023-03-04T08:08:36;101417.97;;;5.08;100.00
30636;BME280;17400;52.392;9.750;2023-03-04T08:11:05;101421.19;;;5.12;100.00
30636;BME280;17400;52.392;9.750;2023-03-04T08:13:33;101408.22;;;5.07;100.00
30636;BME280;17400;52.392;9.750;2023-03-04T08:16:02;101415.97;;;5.10;100.00
30636;BME280;17400;52.392;9.750;2023-03-04T08:18:30;101412.16;;;5.13;100.00
30636;BME280;17400;52.392;9.750;2023-03-04T08:20:57;101406.22;;;5.09;100.00
30636;BME280;17400;52.392;9.750;2023-03-04T08:23:27;101409.47;;;5.23;100.00
30636;BME280;17400;52.392;9.750;2023-03-04T08:25:55;101416.66;;;5.32;100.00
30636;BME280;17400;52.392;9.750;2023-03-04T08:28:23;101402.50;;;5.30;100.00
30636;BME280;17400;52.392;9.750;2023-03-04T08:30:52;101403.75;;;5.36;100.00
30636;BME280;17400;52.392;9.750;2023-03-04T08:33:24;101410.97;;;5.35;100.00
30636;BME280;17400;52.392;9.750;2023-03-04T08:35:52;101405.56;;;5.45;100.00
30636;BME280;17400;52.392;9.750;2023-03-04T08:38:20;101401.75;;;5.47;100.00
30636;BME280;17400;52.392;9.750;2023-03-04T08:40:52;101400.09;;;5.46;100.00
30636;BME280;17400;52.392;9.750;2023-03-04T08:43:20;101403.91;;;5.44;100.00
30636;BME280;17400;52.392;9.750;2023-03-04T08:45:48;101406.84;;;5.41;100.00
30636;BME280;17400;52.392;9.750;2023-03-04T08:48:16;101415.25;;;5.18;100.00
30636;BME280;17400;52.392;9.750;2023-03-04T08:50:44;101409.03;;;5.27;100.00
30636;BME280;17400;52.392;9.750;2023-03-04T08:53:13;101414.66;;;5.34;100.00
30636;BME280;17400;52.392;9.750;2023-03-04T08:55:42;101408.00;;;5.38;100.00
30636;BME280;17400;52.392;9.750;2023-03-04T08:58:11;101406.03;;;5.40;100.00
30636;BME280;17400;52.392;9.750;2023-03-04T09:00:42;101413.09;;;5.41;100.00
30636;BME280;17400;52.392;9.750;2023-03-04T09:03:11;101408.41;;;5.43;100.00
30636;BME280;17400;52.392;9.750;2023-03-04T09:05:38;101408.13;;;5.46;100.00
30636;BME280;17400;52.392;9.750;2023-03-04T09:08:08;101406.84;;;5.50;100.00
30636;BME280;17400;52.392;9.750;2023-03-04T09:10:36;101410.22;;;5.53;100.00
30636;BME280;17400;52.392;9.750;2023-03-04T09:13:03;101410.66;;;5.48;100.00
30636;BME280;17400;52.392;9.750;2023-03-04T09:15:33;101409.81;;;5.47;100.00
30636;BME280;17400;52.392;9.750;2023-03-04T09:18:01;101405.72;;;5.43;100.00
30636;BME280;17400;52.392;9.750;2023-03-04T09:20:29;101416.97;;;5.57;100.00
30636;BME280;17400;52.392;9.750;2023-03-04T09:22:57;101415.41;;;5.64;100.00
30636;BME280;17400;52.392;9.750;2023-03-04T09:25:25;101416.34;;;5.73;100.00
30636;BME280;17400;52.392;9.750;2023-03-04T09:27:53;101414.22;;;5.76;100.00
30636;BME280;17400;52.392;9.750;2023-03-04T09:30:23;101422.84;;;5.80;100.00
30636;BME280;17400;52.392;9.750;2023-03-04T09:32:54;101407.97;;;5.86;100.00
30636;BME280;17400;52.392;9.750;2023-03-04T09:35:23;101423.94;;;5.87;100.00
30636;BME280;17400;52.392;9.750;2023-03-04T09:37:50;101415.34;;;5.83;100.00
30636;BME280;17400;52.392;9.750;2023-03-04T09:40:20;101419.41;;;5.88;100.00
30636;BME280;17400;52.392;9.750;2023-03-04T09:42:52;101421.56;;;5.84;100.00
30636;BME280;17400;52.392;9.750;2023-03-04T09:45:24;101419.91;;;5.73;100.00
30636;BME280;17400;52.392;9.750;2023-03-04T09:47:54;101418.47;;;5.79;100.00
30636;BME280;17400;52.392;9.750;2023-03-04T09:50:23;101419.59;;;5.76;100.00
30636;BME280;17400;52.392;9.750;2023-03-04T09:53:03;101420.59;;;5.75;100.00
30636;BME280;17400;52.392;9.750;2023-03-04T09:55:34;101424.97;;;5.76;100.00
30636;BME280;17400;52.392;9.750;2023-03-04T09:58:09;101422.75;;;5.72;100.00
30636;BME280;17400;52.392;9.750;2023-03-04T10:00:42;101429.50;;;5.76;100.00
30636;BME280;17400;52.392;9.750;2023-03-04T10:03:15;101423.84;;;5.79;100.00
30636;BME280;17400;52.392;9.750;2023-03-04T10:05:49;101415.63;;;5.80;100.00
30636;BME280;17400;52.392;9.750;2023-03-04T10:08:34;101411.63;;;5.84;100.00
30636;BME280;17400;52.392;9.750;2023-03-04T10:11:09;101413.50;;;5.84;100.00
30636;BME280;17400;52.392;9.750;2023-03-04T10:13:43;101413.72;;;5.91;100.00
30636;BME280;17400;52.392;9.750;2023-03-04T10:16:18;101411.88;;;6.01;100.00
30636;BME280;17400;52.392;9.750;2023-03-04T10:18:52;101407.91;;;6.05;100.00
30636;BME280;17400;52.392;9.750;2023-03-04T10:21:28;101404.06;;;6.08;100.00
30636;BME280;17400;52.392;9.750;2023-03-04T10:23:59;101407.91;;;6.05;100.00
30636;BME280;17400;52.392;9.750;2023-03-04T10:26:30;101413.97;;;6.07;100.00
30636;BME280;17400;52.392;9.750;2023-03-04T10:28:59;101418.66;;;6.05;100.00
30636;BME280;17400;52.392;9.750;2023-03-04T10:31:31;101409.91;;;5.93;100.00
30636;BME280;17400;52.392;9.750;2023-03-04T10:34:02;101404.09;;;5.98;100.00
30636;BME280;17400;52.392;9.750;2023-03-04T10:36:38;101402.59;;;5.86;100.00
30636;BME280;17400;52.392;9.750;2023-03-04T10:39:09;101404.44;;;5.85;100.00
30636;BME280;17400;52.392;9.750;2023-03-04T10:41:41;101404.22;;;5.96;100.00
30636;BME280;17400;52.392;9.750;2023-03-04T10:44:15;101398.59;;;6.17;100.00
30636;BME280;17400;52.392;9.750;2023-03-04T10:46:45;101393.94;;;6.20;100.00
30636;BME280;17400;52.392;9.750;2023-03-04T10:49:17;101395.47;;;6.22;100.00
30636;BME280;17400;52.392;9.750;2023-03-04T10:51:47;101399.88;;;6.23;100.00
30636;BME280;17400;52.392;9.750;2023-03-04T10:54:22;101399.56;;;6.26;100.00
30636;BME280;17400;52.392;9.750;2023-03-04T10:56:57;101396.41;;;6.31;100.00
30636;BME280;17400;52.392;9.750;2023-03-04T10:59:32;101394.72;;;6.30;100.00
30636;BME280;17400;52.392;9.750;2023-03-04T11:02:09;101389.81;;;6.43;100.00
30636;BME280;17400;52.392;9.750;2023-03-04T11:04:41;101392.03;;;6.48;100.00
30636;BME280;17400;52.392;9.750;2023-03-04T11:07:14;101388.66;;;6.46;100.00
30636;BME280;17400;52.392;9.750;2023-03-04T11:09:43;101408.25;;;6.38;100.00
30636;BME280;17400;52.392;9.750;2023-03-04T11:12:13;101399.00;;;6.05;100.00
30636;BME280;17400;52.392;9.750;2023-03-04T11:14:45;101397.84;;;5.97;100.00
30636;BME280;17400;52.392;9.750;2023-03-04T11:17:18;101397.31;;;5.94;100.00
30636;BME280;17400;52.392;9.750;2023-03-04T11:19:51;101399.13;;;6.03;100.00
30636;BME280;17400;52.392;9.750;2023-03-04T11:22:22;101396.00;;;6.08;100.00
30636;BME280;17400;52.392;9.750;2023-03-04T11:24:55;101392.72;;;6.14;100.00
30636;BME280;17400;52.392;9.750;2023-03-04T11:27:33;101393.78;;;6.21;100.00
30636;BME280;17400;52.392;9.750;2023-03-04T11:30:15;101392.44;;;6.35;100.00
30636;BME280;17400;52.392;9.750;2023-03-04T11:32:48;101399.41;;;6.28;100.00
30636;BME280;17400;52.392;9.750;2023-03-04T11:35:23;101391.13;;;6.39;100.00
30636;BME280;17400;52.392;9.750;2023-03-04T11:37:58;101392.28;;;6.37;100.00
30636;BME280;17400;52.392;9.750;2023-03-04T11:40:33;101387.50;;;6.48;100.00
30636;BME280;17400;52.392;9.750;2023-03-04T11:43:05;101382.53;;;6.54;100.00
30636;BME280;17400;52.392;9.750;2023-03-04T11:46:00;101381.88;;;6.60;100.00
30636;BME280;17400;52.392;9.750;2023-03-04T11:48:44;101383.25;;;6.64;100.00
30636;BME280;17400;52.392;9.750;2023-03-04T11:51:20;101376.34;;;6.61;100.00
30636;BME280;17400;52.392;9.750;2023-03-04T11:53:59;101367.53;;;6.51;100.00
30636;BME280;17400;52.392;9.750;2023-03-04T11:56:33;101376.81;;;6.39;100.00
30636;BME280;17400;52.392;9.750;2023-03-04T11:59:09;101365.66;;;6.33;100.00
30636;BME280;17400;52.392;9.750;2023-03-04T12:01:48;101358.31;;;6.36;100.00
30636;BME280;17400;52.392;9.750;2023-03-04T12:04:24;101364.47;;;6.46;100.00
30636;BME280;17400;52.392;9.750;2023-03-04T12:07:08;101362.81;;;6.53;100.00
30636;BME280;17400;52.392;9.750;2023-03-04T12:09:43;101354.31;;;6.58;100.00
30636;BME280;17400;52.392;9.750;2023-03-04T12:12:24;101350.84;;;6.47;100.00
30636;BME280;17400;52.392;9.750;2023-03-04T12:15:01;101349.59;;;6.60;100.00
30636;BME280;17400;52.392;9.750;2023-03-04T12:17:54;101345.47;;;6.65;100.00
30636;BME280;17400;52.392;9.750;2023-03-04T12:24:04;101342.84;;;6.74;100.00
30636;BME280;17400;52.392;9.750;2023-03-04T12:26:38;101341.72;;;6.84;100.00
30636;BME280;17400;52.392;9.750;2023-03-04T12:29:14;101334.88;;;6.90;100.00
30636;BME280;17400;52.392;9.750;2023-03-04T12:31:49;101338.03;;;6.86;100.00
30636;BME280;17400;52.392;9.750;2023-03-04T12:34:33;101332.94;;;6.82;100.00
30636;BME280;17400;52.392;9.750;2023-03-04T12:37:22;101338.13;;;6.76;100.00
30636;BME280;17400;52.392;9.750;2023-03-04T12:40:27;101348.38;;;6.72;100.00
30636;BME280;17400;52.392;9.750;2023-03-04T12:43:07;101336.16;;;6.60;100.00
30636;BME280;17400;52.392;9.750;2023-03-04T12:45:40;101348.06;;;6.57;100.00
30636;BME280;17400;52.392;9.750;2023-03-04T12:48:20;101336.25;;;6.50;100.00
30636;BME280;17400;52.392;9.750;2023-03-04T12:51:00;101334.50;;;6.41;100.00
30636;BME280;17400;52.392;9.750;2023-03-04T12:53:36;101334.00;;;6.45;100.00
30636;BME280;17400;52.392;9.750;2023-03-04T12:56:21;101334.00;;;6.45;100.00
30636;BME280;17400;52.392;9.750;2023-03-04T12:58:50;101328.63;;;6.45;100.00
30636;BME280;17400;52.392;9.750;2023-03-04T13:01:23;101330.31;;;6.46;100.00
30636;BME280;17400;52.392;9.750;2023-03-04T13:04:02;101332.03;;;6.47;100.00
30636;BME280;17400;52.392;9.750;2023-03-04T13:06:39;101325.03;;;6.37;100.00
30636;BME280;17400;52.392;9.750;2023-03-04T13:09:16;101330.25;;;6.38;100.00